createdAt,value
2024-03-11T00:02:22.097Z,153405.00
2024-03-11T00:04:52.054Z,153421.88
2024-03-11T00:07:35.258Z,153447.81
2024-03-11T00:10:05.722Z,153462.06
2024-03-11T00:12:42.534Z,153484.09
2024-03-11T00:15:14.136Z,153460.72
2024-03-11T00:17:48.882Z,153463.34
2024-03-11T00:20:19.018Z,153455.56
2024-03-11T00:22:54.615Z,153471.16
2024-03-11T00:25:26.217Z,153465.97
2024-03-11T00:27:58.351Z,153460.72
2024-03-11T00:30:30.137Z,153460.72
2024-03-11T00:33:02.465Z,153465.97
2024-03-11T00:35:33.939Z,153463.34
2024-03-11T00:38:09.254Z,153451.69
2024-03-11T00:40:42.231Z,153442.63
2024-03-11T00:43:12.453Z,153458.16
2024-03-11T00:45:43.144Z,153473.72
2024-03-11T00:48:13.472Z,153440.00
2024-03-11T00:50:48.039Z,153395.94
2024-03-11T00:53:20.683Z,153389.47
2024-03-11T00:55:53.549Z,153425.75
2024-03-11T00:58:25.581Z,153424.47
2024-03-11T01:00:58.450Z,153393.38
2024-03-11T01:03:32.909Z,153383.00
2024-03-11T01:06:03.313Z,153394.66
2024-03-11T01:08:39.656Z,153420.56
2024-03-11T01:11:10.649Z,153412.81
2024-03-11T01:13:42.999Z,153392.09
2024-03-11T01:16:16.000Z,153385.56
2024-03-11T01:18:46.616Z,153370.03
2024-03-11T01:21:18.988Z,153372.63
2024-03-11T01:23:51.681Z,153375.19
2024-03-11T01:26:23.070Z,153390.75
2024-03-11T01:28:53.268Z,153402.44
2024-03-11T01:31:26.740Z,153385.56
2024-03-11T01:34:06.443Z,153359.66
2024-03-11T01:36:40.494Z,153366.13
2024-03-11T01:39:26.307Z,153401.13
2024-03-11T01:41:57.036Z,153424.47
2024-03-11T01:44:29.375Z,153402.44
2024-03-11T01:46:59.876Z,153375.19
2024-03-11T01:49:29.780Z,153389.47
2024-03-11T01:52:04.001Z,153407.63
2024-03-11T01:54:42.609Z,153377.81
2024-03-11T01:57:14.476Z,153392.09
2024-03-11T01:59:45.450Z,153401.13
2024-03-11T02:02:15.614Z,153434.81
2024-03-11T02:04:47.280Z,153395.94
2024-03-11T02:07:18.276Z,153398.53
2024-03-11T02:09:53.750Z,153418.00
2024-03-11T02:12:23.689Z,153395.94
2024-03-11T02:15:00.958Z,153401.13
2024-03-11T02:17:36.943Z,153399.84
2024-03-11T02:20:17.521Z,153384.28
2024-03-11T02:22:51.437Z,153364.84
2024-03-11T02:25:28.654Z,153376.50
2024-03-11T02:28:04.708Z,153406.28
2024-03-11T02:30:35.872Z,153403.72
2024-03-11T02:33:06.882Z,153375.19
2024-03-11T02:35:36.903Z,153333.69
2024-03-11T02:38:07.104Z,153271.47
2024-03-11T02:40:40.523Z,153231.31
2024-03-11T02:43:12.060Z,153211.88
2024-03-11T02:45:42.555Z,153205.44
2024-03-11T02:48:15.241Z,153196.34
2024-03-11T02:50:46.604Z,153180.81
2024-03-11T02:53:19.739Z,153174.34
2024-03-11T02:55:54.897Z,153166.56
2024-03-11T02:58:25.512Z,153162.66
2024-03-11T03:00:59.746Z,153161.38
2024-03-11T03:03:29.720Z,153138.06
2024-03-11T03:05:59.766Z,153123.81
2024-03-11T03:08:30.089Z,153101.81
2024-03-11T03:11:09.727Z,153083.66
2024-03-11T03:13:40.859Z,153085.00
2024-03-11T03:16:12.036Z,153074.59
2024-03-11T03:18:45.157Z,153062.94
2024-03-11T03:21:15.059Z,153048.69
2024-03-11T03:23:47.537Z,153044.81
2024-03-11T03:26:21.319Z,153046.13
2024-03-11T03:28:54.667Z,153046.13
2024-03-11T03:31:28.463Z,153037.06
2024-03-11T03:33:58.257Z,153038.34
2024-03-11T03:36:30.057Z,153033.16
2024-03-11T03:39:02.191Z,153034.44
2024-03-11T03:41:34.690Z,153035.78
2024-03-11T03:44:04.644Z,153028.00
2024-03-11T03:46:36.784Z,153020.19
2024-03-11T03:49:09.124Z,153009.84
2024-03-11T03:51:41.346Z,153007.28
2024-03-11T03:54:13.522Z,152991.75
2024-03-11T03:56:47.842Z,152999.50
2024-03-11T03:59:23.908Z,152986.59
2024-03-11T04:01:54.413Z,152973.63
2024-03-11T04:04:24.304Z,152965.81
2024-03-11T04:06:56.557Z,152956.81
2024-03-11T04:09:27.682Z,152937.34
2024-03-11T04:12:05.147Z,152932.16
2024-03-11T04:14:35.244Z,152919.19
2024-03-11T04:17:05.297Z,152906.25
2024-03-11T04:19:35.650Z,152882.97
2024-03-11T04:22:08.480Z,152877.81
2024-03-11T04:24:39.653Z,152873.91
2024-03-11T04:27:14.005Z,152864.84
2024-03-11T04:29:43.750Z,152846.69
2024-03-11T04:32:18.567Z,152841.53
2024-03-11T04:34:48.472Z,152848.03
2024-03-11T04:37:19.883Z,152851.88
2024-03-11T04:39:49.783Z,152855.78
2024-03-11T04:42:27.451Z,152850.59
2024-03-11T04:44:57.374Z,152844.13
2024-03-11T04:47:29.520Z,152853.22
2024-03-11T04:50:02.028Z,152849.31
2024-03-11T04:52:33.536Z,152854.50
2024-03-11T04:55:04.266Z,152838.97
2024-03-11T04:57:37.072Z,152838.97
2024-03-11T05:00:09.616Z,152837.69
2024-03-11T05:02:40.342Z,152844.13
2024-03-11T05:05:11.785Z,152835.06
2024-03-11T05:07:50.981Z,152832.50
2024-03-11T05:10:23.480Z,152842.84
2024-03-11T05:12:56.045Z,152842.84
2024-03-11T05:15:28.213Z,152829.91
2024-03-11T05:18:01.376Z,152833.78
2024-03-11T05:20:31.604Z,152831.19
2024-03-11T05:23:01.578Z,152829.91
2024-03-11T05:25:33.966Z,152827.28
2024-03-11T05:28:06.647Z,152828.63
2024-03-11T05:30:37.810Z,152827.28
2024-03-11T05:33:12.427Z,152842.84
2024-03-11T05:35:42.940Z,152844.13
2024-03-11T05:38:15.211Z,152860.94
2024-03-11T05:40:45.130Z,152858.38
2024-03-11T05:43:24.588Z,152858.38
2024-03-11T05:45:54.985Z,152886.88
2024-03-11T05:48:26.285Z,152871.28
2024-03-11T05:51:02.993Z,152859.66
2024-03-11T05:53:37.925Z,152875.19
2024-03-11T05:56:10.187Z,152872.63
2024-03-11T05:58:44.810Z,152859.66
2024-03-11T06:01:15.615Z,152866.13
2024-03-11T06:03:53.041Z,152863.56
2024-03-11T06:06:25.615Z,152868.72
2024-03-11T06:08:56.398Z,152858.38
2024-03-11T06:11:27.082Z,152854.50
2024-03-11T06:14:00.830Z,152871.28
2024-03-11T06:16:30.430Z,152875.19
2024-03-11T06:19:02.441Z,152872.63
2024-03-11T06:21:32.384Z,152880.38
2024-03-11T06:24:02.634Z,152873.91
2024-03-11T06:26:38.314Z,152888.16
2024-03-11T06:29:17.406Z,152884.25
2024-03-11T06:31:49.956Z,152885.53
2024-03-11T06:34:24.829Z,152895.88
2024-03-11T06:36:54.969Z,152897.22
2024-03-11T06:39:26.432Z,152897.22
2024-03-11T06:41:59.600Z,152914.03
2024-03-11T06:44:40.520Z,152914.03
2024-03-11T06:47:15.088Z,152921.81
2024-03-11T06:49:44.992Z,152924.38
2024-03-11T06:52:14.933Z,152937.34
2024-03-11T06:54:44.879Z,152934.72
2024-03-11T06:57:14.997Z,152928.28
2024-03-11T06:59:47.559Z,152927.00
2024-03-11T07:02:24.226Z,152924.38
2024-03-11T07:04:57.201Z,152917.91
2024-03-11T07:07:30.244Z,152910.13
2024-03-11T07:10:01.464Z,152938.63
2024-03-11T07:12:31.487Z,152925.66
2024-03-11T07:15:04.345Z,152929.56
2024-03-11T07:17:35.494Z,152941.22
2024-03-11T07:20:08.543Z,152951.63
2024-03-11T07:22:40.095Z,152956.81
2024-03-11T07:25:12.056Z,152959.38
2024-03-11T07:27:43.507Z,152955.47
2024-03-11T07:30:22.616Z,152932.16
2024-03-11T07:33:08.361Z,152968.44
2024-03-11T07:35:44.449Z,152981.41
2024-03-11T07:38:15.570Z,153007.28
2024-03-11T07:40:47.367Z,153025.44
2024-03-11T07:43:18.389Z,153007.28
2024-03-11T07:45:51.005Z,153015.03
2024-03-11T07:48:24.627Z,153029.28
2024-03-11T07:50:57.636Z,153013.75
2024-03-11T07:53:29.793Z,153033.16
2024-03-11T07:56:00.823Z,153015.03
2024-03-11T07:58:31.095Z,153031.88
2024-03-11T08:01:03.990Z,153033.16
2024-03-11T08:03:33.991Z,153015.03
2024-03-11T08:06:04.485Z,153030.59
2024-03-11T08:08:34.383Z,153028.00
2024-03-11T08:11:04.364Z,153018.91
2024-03-11T08:13:34.271Z,153024.09
2024-03-11T08:16:07.063Z,153015.03
2024-03-11T08:18:44.462Z,153013.75
2024-03-11T08:21:21.712Z,153013.75
2024-03-11T08:23:52.676Z,153020.19
2024-03-11T08:26:26.274Z,153015.03
2024-03-11T08:28:56.241Z,153029.28
2024-03-11T08:31:29.796Z,153035.78
2024-03-11T08:34:02.169Z,153043.53
2024-03-11T08:36:32.099Z,153065.56
2024-03-11T08:39:05.529Z,153059.06
2024-03-11T08:41:35.808Z,153043.53
2024-03-11T08:44:05.799Z,153087.56
2024-03-11T08:46:38.570Z,153068.13
2024-03-11T08:49:13.223Z,153082.38
2024-03-11T08:51:45.687Z,153087.56
2024-03-11T08:54:15.556Z,153068.13
2024-03-11T08:56:46.057Z,153077.19
2024-03-11T08:59:16.600Z,153087.56
2024-03-11T09:01:50.940Z,153096.63
2024-03-11T09:04:23.343Z,153127.69
2024-03-11T09:06:53.453Z,153135.50
2024-03-11T09:09:26.425Z,153125.13
2024-03-11T09:11:58.334Z,153139.38
2024-03-11T09:14:32.885Z,153176.91
2024-03-11T09:17:05.613Z,153188.56
2024-03-11T09:19:38.685Z,153170.47
2024-03-11T09:22:08.835Z,153097.91
2024-03-11T09:24:39.032Z,153105.69
2024-03-11T09:27:09.244Z,153086.28
2024-03-11T09:29:39.393Z,153113.44
2024-03-11T09:32:14.120Z,153114.78
2024-03-11T09:34:44.131Z,153126.41
2024-03-11T09:37:16.498Z,153112.16
2024-03-11T09:39:49.079Z,153095.34
2024-03-11T09:42:21.340Z,153128.97
2024-03-11T09:44:54.410Z,153069.41
2024-03-11T09:47:29.030Z,153072.03
2024-03-11T09:49:59.456Z,153079.81
2024-03-11T09:52:30.947Z,153101.81
2024-03-11T09:55:04.892Z,153099.19
2024-03-11T09:57:39.405Z,153138.06
2024-03-11T10:00:14.399Z,153148.41
2024-03-11T10:02:53.775Z,153157.47
2024-03-11T10:05:26.689Z,153170.47
2024-03-11T10:07:59.712Z,153188.56
2024-03-11T10:10:33.537Z,153219.69
2024-03-11T10:13:09.211Z,153261.13
2024-03-11T10:15:44.592Z,153290.94
2024-03-11T10:18:32.748Z,153349.28
2024-03-11T10:21:02.784Z,153354.47
2024-03-11T10:23:33.705Z,153364.84
2024-03-11T10:26:18.834Z,153355.75
2024-03-11T10:28:51.077Z,153390.75
2024-03-11T10:31:25.810Z,153410.19
2024-03-11T10:34:12.264Z,153375.19
2024-03-11T10:36:49.089Z,153372.63
2024-03-11T10:39:32.832Z,153370.03
2024-03-11T10:42:03.802Z,153364.84
2024-03-11T10:44:34.827Z,153336.28
2024-03-11T10:47:18.205Z,153341.44
2024-03-11T10:49:55.526Z,153331.09
2024-03-11T10:52:27.405Z,153329.81
2024-03-11T10:57:41.457Z,153307.78
2024-03-11T11:00:21.465Z,153284.47
2024-03-11T11:02:55.571Z,153287.03
2024-03-11T11:05:41.329Z,153288.34
2024-03-11T11:08:14.124Z,153278.00
2024-03-11T11:10:47.519Z,153300.00
2024-03-11T11:13:20.400Z,153266.31
2024-03-11T11:15:52.094Z,153289.63
2024-03-11T11:18:25.848Z,153271.47
2024-03-11T11:21:00.268Z,153302.63
2024-03-11T11:23:36.448Z,153338.88
2024-03-11T11:26:07.212Z,153331.09
2024-03-11T11:28:42.296Z,153325.91
2024-03-11T11:31:16.700Z,153296.09
2024-03-11T11:33:58.245Z,153302.63
2024-03-11T11:37:04.360Z,153272.81
2024-03-11T11:39:41.673Z,153335.00
2024-03-11T11:42:36.776Z,153270.19
2024-03-11T11:45:11.341Z,153279.28
2024-03-11T11:47:41.610Z,153258.56
2024-03-11T11:50:37.947Z,153244.31
2024-03-11T11:53:08.137Z,153244.31
2024-03-11T11:55:58.960Z,153265.03
2024-03-11T11:58:29.874Z,153255.94
2024-03-11T12:01:06.009Z,153245.59
2024-03-11T12:03:38.620Z,153242.97
2024-03-11T12:06:19.470Z,153230.03
2024-03-11T12:08:51.822Z,153231.31
2024-03-11T12:11:30.766Z,153250.75
2024-03-11T12:14:00.787Z,153259.84
2024-03-11T12:16:33.799Z,153262.41
2024-03-11T12:19:06.975Z,153249.47
2024-03-11T12:21:44.262Z,153262.41
2024-03-11T12:24:18.450Z,153249.47
2024-03-11T12:26:51.952Z,153292.22
2024-03-11T12:29:26.224Z,153288.34
2024-03-11T12:31:58.307Z,153297.38
2024-03-11T12:34:30.290Z,153318.16
2024-03-11T12:37:01.165Z,153355.75
2024-03-11T12:39:35.657Z,153395.94
2024-03-11T12:42:10.618Z,153421.88
2024-03-11T12:44:42.922Z,153420.56
2024-03-11T12:47:14.357Z,153407.63
2024-03-11T12:49:47.362Z,153399.84
2024-03-11T12:52:21.326Z,153401.13
2024-03-11T12:54:51.837Z,153450.38
2024-03-11T12:57:27.589Z,153414.09
2024-03-11T13:00:08.399Z,153454.28
2024-03-11T13:02:40.932Z,153478.91
2024-03-11T13:05:18.425Z,153507.44
2024-03-11T13:07:48.740Z,153546.34
2024-03-11T13:10:19.398Z,153533.34
2024-03-11T13:12:56.817Z,153543.72
2024-03-11T13:15:31.813Z,153523.00
2024-03-11T13:18:04.276Z,153494.44
2024-03-11T13:20:48.101Z,153511.34
2024-03-11T13:23:19.938Z,153493.16
2024-03-11T13:25:51.453Z,153510.00
2024-03-11T13:28:26.234Z,153500.97
2024-03-11T13:30:57.201Z,153508.72
2024-03-11T13:33:27.220Z,153495.78
2024-03-11T13:36:02.004Z,153500.97
2024-03-11T13:38:36.188Z,153502.25
2024-03-11T13:41:07.618Z,153515.19
2024-03-11T13:43:44.813Z,153499.63
2024-03-11T13:46:16.437Z,153520.38
2024-03-11T13:48:48.256Z,153519.09
2024-03-11T13:51:20.875Z,153542.44
2024-03-11T13:53:51.332Z,153558.00
2024-03-11T13:56:21.274Z,153576.16
2024-03-11T13:58:54.430Z,153598.19
2024-03-11T14:01:26.232Z,153613.75
2024-03-11T14:04:00.380Z,153629.28
2024-03-11T14:06:34.037Z,153666.94
2024-03-11T14:09:11.439Z,153687.66
2024-03-11T14:11:41.766Z,153718.91
2024-03-11T14:14:17.008Z,153730.53
2024-03-11T14:16:51.962Z,153730.53
2024-03-11T14:19:21.972Z,153738.31
2024-03-11T14:21:53.042Z,153712.38
2024-03-11T14:24:23.193Z,153712.38
2024-03-11T14:26:53.148Z,153687.66
2024-03-11T14:29:26.345Z,153681.22
2024-03-11T14:31:56.715Z,153668.22
2024-03-11T14:34:30.707Z,153660.47
2024-03-11T14:37:02.853Z,153647.47
2024-03-11T14:39:36.663Z,153626.72
2024-03-11T14:42:07.720Z,153606.00
2024-03-11T14:44:40.219Z,153577.44
2024-03-11T14:47:10.963Z,153561.91
2024-03-11T14:49:42.387Z,153574.81
2024-03-11T14:52:16.220Z,153567.06
2024-03-11T14:54:50.805Z,153547.63
2024-03-11T14:57:20.887Z,153539.81
2024-03-11T14:59:56.374Z,153511.34
2024-03-11T15:02:26.223Z,153506.16
2024-03-11T15:04:58.400Z,153482.81
2024-03-11T15:07:28.341Z,153476.34
2024-03-11T15:10:00.764Z,153460.72
2024-03-11T15:12:30.887Z,153438.72
2024-03-11T15:15:03.491Z,153428.34
2024-03-11T15:17:37.258Z,153428.34
2024-03-11T15:20:12.762Z,153411.53
2024-03-11T15:22:42.736Z,153397.25
2024-03-11T15:25:13.071Z,153384.28
2024-03-11T15:27:45.526Z,153386.91
2024-03-11T15:30:22.438Z,153371.31
2024-03-11T15:32:53.215Z,153388.19
2024-03-11T15:35:25.329Z,153372.63
2024-03-11T15:37:57.195Z,153376.50
2024-03-11T15:40:27.363Z,153384.28
2024-03-11T15:43:01.363Z,153381.66
2024-03-11T15:45:40.062Z,153375.19
2024-03-11T15:48:11.743Z,153366.13
2024-03-11T15:50:42.480Z,153373.91
2024-03-11T15:53:14.498Z,153359.66
2024-03-11T15:55:48.208Z,153351.84
2024-03-11T15:58:18.311Z,153351.84
2024-03-11T16:00:53.016Z,153341.44
2024-03-11T16:03:25.125Z,153368.75
2024-03-11T16:05:57.268Z,153349.28
2024-03-11T16:08:28.664Z,153345.41
2024-03-11T16:10:56.168Z,153345.41
2024-03-11T16:13:26.087Z,153342.78
2024-03-11T16:18:29.413Z,153324.63
2024-03-11T16:20:57.320Z,153328.53
2024-03-11T16:23:34.904Z,153310.38
2024-03-11T16:26:03.033Z,153296.09
2024-03-11T16:28:34.489Z,153294.81
2024-03-11T16:31:06.581Z,153287.03
2024-03-11T16:33:39.387Z,153274.09
2024-03-11T16:36:11.371Z,153283.19
2024-03-11T16:38:51.674Z,153257.22
2024-03-11T16:41:27.408Z,153241.69
2024-03-11T16:43:58.067Z,153236.50
2024-03-11T16:46:35.810Z,153235.22
2024-03-11T16:49:04.187Z,153211.88
2024-03-11T16:51:34.459Z,153217.06
2024-03-11T16:54:02.539Z,153218.41
2024-03-11T16:56:33.590Z,153211.88
2024-03-11T16:59:01.817Z,153223.59
2024-03-11T17:01:35.988Z,153208.00
2024-03-11T17:04:05.660Z,153209.31
2024-03-11T17:06:37.163Z,153227.44
2024-03-11T17:09:08.824Z,153214.50
2024-03-11T17:11:41.893Z,153206.72
2024-03-11T17:14:11.056Z,153208.00
2024-03-11T17:16:45.674Z,153209.31
2024-03-11T17:19:24.990Z,153213.19
2024-03-11T17:21:58.198Z,153192.47
2024-03-11T17:24:33.986Z,153184.72
2024-03-11T17:27:05.806Z,153187.28
2024-03-11T17:29:33.616Z,153167.84
2024-03-11T17:32:09.689Z,153175.63
2024-03-11T17:34:38.472Z,153167.84
2024-03-11T17:37:09.673Z,153158.78
2024-03-11T17:39:37.097Z,153175.63
2024-03-11T17:42:09.734Z,153175.63
2024-03-11T17:44:37.042Z,153173.03
2024-03-11T17:47:12.489Z,153149.75
2024-03-11T17:49:43.327Z,153149.75
2024-03-11T17:52:15.773Z,153143.22
2024-03-11T17:54:47.623Z,153128.97
2024-03-11T17:57:18.198Z,153126.41
2024-03-11T17:59:45.992Z,153127.69
2024-03-11T18:02:19.960Z,153127.69
2024-03-11T18:04:48.172Z,153139.38
2024-03-11T18:07:18.455Z,153132.88
2024-03-11T18:09:45.768Z,153141.94
2024-03-11T18:12:18.438Z,153139.38
2024-03-11T18:14:49.536Z,153136.78
2024-03-11T18:17:24.252Z,153147.13
2024-03-11T18:19:55.253Z,153123.81
2024-03-11T18:22:27.351Z,153114.78
2024-03-11T18:24:56.708Z,153100.53
2024-03-11T18:27:26.774Z,153101.81
2024-03-11T18:29:56.895Z,153112.16
2024-03-11T18:32:31.991Z,153114.78
2024-03-11T18:34:59.400Z,153106.97
2024-03-11T18:37:29.952Z,153079.81
2024-03-11T18:40:02.234Z,153074.59
2024-03-11T18:42:32.611Z,153069.41
2024-03-11T18:45:02.685Z,153073.31
2024-03-11T18:47:37.810Z,153072.03
2024-03-11T18:50:12.301Z,153062.94
2024-03-11T18:52:52.952Z,153052.59
2024-03-11T18:55:31.340Z,153049.97
2024-03-11T18:58:04.374Z,153068.13
2024-03-11T19:00:40.096Z,153057.78
2024-03-11T19:03:18.187Z,153059.06
2024-03-11T19:05:49.480Z,153030.59
2024-03-11T19:08:19.472Z,153025.44
2024-03-11T19:10:49.408Z,153029.28
2024-03-11T19:13:19.398Z,153038.34
2024-03-11T19:15:49.604Z,153030.59
2024-03-11T19:18:27.100Z,153018.91
2024-03-11T19:20:59.377Z,153007.28
2024-03-11T19:23:32.743Z,153000.81
2024-03-11T19:26:03.833Z,153004.66
2024-03-11T19:28:34.821Z,152993.03
2024-03-11T19:31:05.450Z,152982.69
2024-03-11T19:33:39.170Z,152977.50
2024-03-11T19:36:16.501Z,152985.25
2024-03-11T19:39:21.494Z,152965.81
2024-03-11T19:42:02.230Z,152949.03
2024-03-11T19:44:47.016Z,152939.91
2024-03-11T19:48:05.011Z,152952.91
2024-03-11T19:51:30.063Z,152945.13
2024-03-11T19:54:36.068Z,152950.31
2024-03-11T19:58:00.501Z,152925.66
2024-03-11T20:01:23.452Z,152916.63
2024-03-11T20:04:11.680Z,152902.41
2024-03-11T20:07:10.207Z,152872.63
2024-03-11T20:09:56.625Z,152868.72
2024-03-11T20:12:44.485Z,152857.06
2024-03-11T20:16:07.098Z,152841.53
2024-03-11T20:18:59.615Z,152851.88
2024-03-11T20:21:49.230Z,152850.59
2024-03-11T20:24:49.919Z,152851.88
2024-03-11T20:27:26.522Z,152864.84
2024-03-11T20:30:06.225Z,152858.38
2024-03-11T20:32:45.552Z,152854.50
2024-03-11T20:35:15.785Z,152838.97
2024-03-11T20:37:49.881Z,152844.13
2024-03-11T20:40:24.759Z,152831.19
2024-03-11T20:42:55.011Z,152826.00
2024-03-11T20:45:26.559Z,152835.06
2024-03-11T20:47:56.608Z,152823.44
2024-03-11T20:50:27.735Z,152811.78
2024-03-11T20:53:02.066Z,152814.38
2024-03-11T20:55:37.079Z,152811.78
2024-03-11T20:58:08.255Z,152804.03
2024-03-11T21:00:41.998Z,152805.31
2024-03-11T21:03:12.801Z,152810.50
2024-03-11T21:05:44.419Z,152810.50
2024-03-11T21:08:17.194Z,152801.41
2024-03-11T21:10:49.853Z,152784.63
2024-03-11T21:13:21.941Z,152778.16
2024-03-11T21:15:52.650Z,152784.63
2024-03-11T21:18:26.029Z,152787.19
2024-03-11T21:21:08.830Z,152782.00
2024-03-11T21:23:41.672Z,152779.44
2024-03-11T21:26:39.662Z,152779.44
2024-03-11T21:29:10.543Z,152776.84
2024-03-11T21:31:41.562Z,152782.00
2024-03-11T21:34:11.915Z,152779.44
2024-03-11T21:36:43.557Z,152796.25
2024-03-11T21:39:15.580Z,152798.88
2024-03-11T21:41:49.814Z,152792.34
2024-03-11T21:44:19.871Z,152787.19
2024-03-11T21:46:51.394Z,152793.69
2024-03-11T21:49:21.341Z,152789.78
2024-03-11T21:51:55.384Z,152804.03
2024-03-11T21:54:23.923Z,152806.59
2024-03-11T21:56:56.869Z,152819.56
2024-03-11T21:59:31.050Z,152810.50
2024-03-11T22:02:02.788Z,152828.63
2024-03-11T22:04:34.112Z,152823.44
2024-03-11T22:07:04.174Z,152820.84
2024-03-11T22:09:37.352Z,152822.13
2024-03-11T22:12:12.979Z,152826.00
2024-03-11T22:14:45.284Z,152824.72
2024-03-11T22:17:25.279Z,152802.75
2024-03-11T22:19:55.274Z,152797.53
2024-03-11T22:22:28.894Z,152787.19
2024-03-11T22:24:58.873Z,152763.94
2024-03-11T22:27:32.869Z,152743.19
2024-03-11T22:30:02.860Z,152719.94
2024-03-11T22:32:32.869Z,152696.63
2024-03-11T22:35:08.128Z,152688.84
2024-03-11T22:37:38.239Z,152661.72
2024-03-11T22:40:10.357Z,152631.97
2024-03-11T22:42:46.456Z,152575.03
2024-03-11T22:45:16.642Z,152541.47
2024-03-11T22:47:50.113Z,152484.56
2024-03-11T22:50:21.000Z,152480.66
2024-03-11T22:52:55.081Z,152456.06
2024-03-11T22:55:25.055Z,152399.22
2024-03-11T22:57:59.105Z,152395.31
2024-03-11T23:00:52.418Z,152378.53
2024-03-11T23:03:22.834Z,152363.03
2024-03-11T23:05:56.740Z,152322.94
2024-03-11T23:08:26.688Z,152308.75
2024-03-11T23:10:57.165Z,152320.38
2024-03-11T23:13:29.926Z,152297.09
2024-03-11T23:15:59.886Z,152308.75
2024-03-11T23:18:31.013Z,152281.59
2024-03-11T23:21:01.031Z,152294.53
2024-03-11T23:23:31.403Z,152280.31
2024-03-11T23:26:03.256Z,152293.22
2024-03-11T23:28:37.484Z,152329.44
2024-03-11T23:31:07.931Z,152229.94
2024-03-11T23:33:37.924Z,152350.09
2024-03-11T23:36:12.866Z,152334.59
2024-03-11T23:38:44.131Z,152295.81
2024-03-11T23:41:15.081Z,152290.66
2024-03-11T23:43:48.278Z,152304.88
2024-03-11T23:46:18.222Z,152321.66
2024-03-11T23:48:49.319Z,152322.94
2024-03-11T23:51:22.320Z,152223.47
2024-03-11T23:53:54.450Z,152204.06
2024-03-11T23:56:27.584Z,152178.25
2024-03-11T23:59:00.399Z,152175.69
